createdAt,value
2023-05-19T00:01:28.229Z,54.54
2023-05-19T00:06:31.783Z,53.70
2023-05-19T00:11:36.152Z,54.74
2023-05-19T00:16:38.853Z,55.07
2023-05-19T00:21:40.308Z,54.70
2023-05-19T00:26:42.450Z,55.52
2023-05-19T00:31:43.562Z,55.67
2023-05-19T00:36:44.416Z,56.43
2023-05-19T00:41:49.251Z,57.00
2023-05-19T00:46:50.096Z,56.97
2023-05-19T00:51:50.929Z,57.56
2023-05-19T00:56:52.960Z,58.52
2023-05-19T01:01:54.214Z,59.67
2023-05-19T01:06:55.196Z,58.78
2023-05-19T01:11:57.300Z,60.12
2023-05-19T01:17:05.654Z,60.76
2023-05-19T01:22:29.315Z,61.09
2023-05-19T01:28:11.706Z,61.65
2023-05-19T01:33:16.278Z,62.59
2023-05-19T01:38:18.919Z,63.41
2023-05-19T01:43:22.269Z,63.96
2023-05-19T01:48:24.541Z,63.82
2023-05-19T01:53:25.490Z,64.97
2023-05-19T01:58:35.375Z,65.01
2023-05-19T02:03:49.057Z,66.02
2023-05-19T02:08:59.146Z,66.21
2023-05-19T02:14:03.783Z,66.54
2023-05-19T02:19:06.005Z,66.70
2023-05-19T02:24:08.163Z,66.88
2023-05-19T02:29:08.831Z,66.73
2023-05-19T02:34:10.958Z,67.57
2023-05-19T02:39:12.195Z,67.36
2023-05-19T02:44:12.805Z,68.04
2023-05-19T02:49:14.858Z,66.83
2023-05-19T02:54:15.502Z,66.12
2023-05-19T02:59:16.126Z,67.27
2023-05-19T03:04:20.066Z,67.25
2023-05-19T03:09:20.963Z,67.81
2023-05-19T03:14:23.884Z,66.83
2023-05-19T03:19:26.415Z,68.31
2023-05-19T03:24:27.168Z,68.84
2023-05-19T03:29:27.786Z,69.38
2023-05-19T03:34:29.755Z,69.95
2023-05-19T03:39:32.166Z,70.40
2023-05-19T03:44:32.849Z,70.87
2023-05-19T03:49:35.835Z,70.45
2023-05-19T03:54:59.292Z,70.50
2023-05-19T03:59:59.987Z,69.83
2023-05-19T04:05:04.690Z,69.75
2023-05-19T04:10:07.109Z,72.14
2023-05-19T04:15:11.369Z,70.14
2023-05-19T04:20:14.244Z,70.10
2023-05-19T04:25:15.041Z,70.22
2023-05-19T04:30:22.096Z,69.96
2023-05-19T04:35:24.255Z,69.92
2023-05-19T04:40:25.085Z,69.54
2023-05-19T04:45:26.847Z,68.73
2023-05-19T04:50:32.762Z,68.45
2023-05-19T04:55:34.738Z,68.53
2023-05-19T05:00:36.600Z,66.79
2023-05-19T05:05:42.221Z,63.68
2023-05-19T05:10:43.557Z,63.04
2023-05-19T05:15:44.783Z,62.35
2023-05-19T05:20:48.250Z,62.57
2023-05-19T05:25:49.944Z,60.92
2023-05-19T05:30:51.017Z,59.97
2023-05-19T05:35:53.553Z,59.55
2023-05-19T05:40:54.365Z,57.84
2023-05-19T05:45:55.202Z,58.11
2023-05-19T05:50:58.173Z,57.19
2023-05-19T05:56:03.338Z,56.51
2023-05-19T06:01:12.954Z,56.27
2023-05-19T06:06:15.635Z,57.01
2023-05-19T06:11:16.358Z,57.13
2023-05-19T06:16:17.458Z,56.50
2023-05-19T06:21:22.766Z,54.79
2023-05-19T06:26:23.565Z,53.36
2023-05-19T06:31:26.508Z,54.01
2023-05-19T06:36:31.392Z,53.91
2023-05-19T06:41:32.710Z,53.53
2023-05-19T06:46:33.558Z,54.55
2023-05-19T06:51:35.882Z,54.17
2023-05-19T06:56:36.516Z,54.37
2023-05-19T07:01:37.264Z,53.19
2023-05-19T07:06:39.589Z,52.84
2023-05-19T07:11:40.332Z,53.22
2023-05-19T07:16:42.758Z,54.15
2023-05-19T07:21:44.771Z,53.17
2023-05-19T07:26:45.492Z,53.79
2023-05-19T07:31:46.187Z,52.73
2023-05-19T07:36:48.205Z,52.93
2023-05-19T07:41:52.706Z,52.98
2023-05-19T07:46:53.475Z,51.98
2023-05-19T07:51:55.578Z,52.09
2023-05-19T07:56:56.211Z,51.79
2023-05-19T08:01:56.911Z,50.12
2023-05-19T08:06:59.028Z,50.26
2023-05-19T08:12:01.453Z,51.30
2023-05-19T08:17:02.188Z,50.04
2023-05-19T08:22:04.330Z,49.23
2023-05-19T08:27:05.554Z,49.64
2023-05-19T08:32:06.716Z,49.72
2023-05-19T08:37:08.873Z,48.96
2023-05-19T08:42:10.081Z,48.39
2023-05-19T08:47:14.050Z,48.97
2023-05-19T08:52:28.735Z,49.09
2023-05-19T08:57:30.073Z,48.23
2023-05-19T09:02:31.685Z,48.34
2023-05-19T09:07:35.006Z,46.59
2023-05-19T09:12:35.864Z,47.38
2023-05-19T09:17:36.930Z,46.81
2023-05-19T09:22:45.197Z,43.95
2023-05-19T09:27:47.451Z,44.82
2023-05-19T09:32:48.232Z,44.98
2023-05-19T09:37:50.289Z,44.98
2023-05-19T09:42:51.350Z,43.49
2023-05-19T09:47:52.215Z,42.05
2023-05-19T09:52:54.485Z,42.22
2023-05-19T09:57:56.350Z,42.91
2023-05-19T10:02:58.244Z,43.83
2023-05-19T10:08:00.451Z,42.54
2023-05-19T10:13:02.176Z,42.27
2023-05-19T10:18:04.320Z,42.54
2023-05-19T10:23:06.633Z,42.49
2023-05-19T10:28:12.404Z,43.64
2023-05-19T10:33:17.522Z,45.36
2023-05-19T10:38:29.048Z,45.61
2023-05-19T10:43:44.844Z,45.89
2023-05-19T10:48:47.080Z,45.23
2023-05-19T10:53:50.183Z,45.94
2023-05-19T10:58:52.133Z,45.58
2023-05-19T11:03:54.094Z,44.19
2023-05-19T11:08:58.574Z,44.68
2023-05-19T11:14:01.473Z,44.54
2023-05-19T11:19:02.247Z,44.55
2023-05-19T11:24:08.711Z,44.68
2023-05-19T11:29:10.181Z,44.52
2023-05-19T11:34:11.299Z,43.77
2023-05-19T11:39:13.512Z,42.83
2023-05-19T11:44:14.163Z,42.69
2023-05-19T11:49:18.418Z,42.05
2023-05-19T11:54:20.510Z,42.38
2023-05-19T11:59:31.759Z,40.66
2023-05-19T12:04:34.135Z,41.68
2023-05-19T12:09:36.956Z,42.72
2023-05-19T12:14:38.644Z,42.14
2023-05-19T12:19:39.432Z,41.67
2023-05-19T12:24:42.693Z,43.31
2023-05-19T12:29:43.437Z,45.31
2023-05-19T12:34:44.168Z,43.14
2023-05-19T12:39:46.598Z,43.36
2023-05-19T12:44:50.104Z,43.36
2023-05-19T12:49:57.257Z,44.61
2023-05-19T12:55:05.105Z,45.32
2023-05-19T13:00:10.591Z,45.03
2023-05-19T13:05:11.273Z,43.75
2023-05-19T13:10:13.353Z,43.06
2023-05-19T13:15:14.198Z,42.65
2023-05-19T13:20:15.071Z,45.25
2023-05-19T13:25:17.534Z,43.45
2023-05-19T13:30:18.719Z,42.91
2023-05-19T13:35:19.468Z,45.33
2023-05-19T13:40:23.012Z,43.82
2023-05-19T13:45:23.692Z,46.47
2023-05-19T13:50:24.346Z,46.95
2023-05-19T13:55:27.402Z,46.10
2023-05-19T14:00:28.472Z,45.59
2023-05-19T14:05:30.954Z,43.69
2023-05-19T14:10:33.398Z,44.32
2023-05-19T14:15:37.818Z,46.08
2023-05-19T14:20:38.797Z,46.48
2023-05-19T14:25:40.983Z,47.11
2023-05-19T14:30:41.620Z,46.54
2023-05-19T14:35:42.281Z,46.67
2023-05-19T14:40:45.038Z,45.18
2023-05-19T14:45:45.815Z,44.92
2023-05-19T14:50:48.245Z,46.73
2023-05-19T14:55:50.285Z,47.92
2023-05-19T15:00:50.967Z,49.00
2023-05-19T15:05:51.673Z,48.51
2023-05-19T15:10:53.612Z,49.09
2023-05-19T15:16:08.222Z,49.84
2023-05-19T15:21:15.631Z,49.06
2023-05-19T15:26:17.863Z,49.15
2023-05-19T15:31:18.829Z,49.03
2023-05-19T15:36:19.564Z,48.80
2023-05-19T15:41:21.817Z,48.97
2023-05-19T15:46:22.740Z,50.96
2023-05-19T15:51:23.643Z,50.74
2023-05-19T15:56:25.981Z,51.05
2023-05-19T16:01:27.217Z,52.10
2023-05-19T16:06:28.109Z,51.21
2023-05-19T16:11:30.070Z,52.50
2023-05-19T16:16:30.772Z,53.12
2023-05-19T16:21:31.612Z,53.42
2023-05-19T16:26:34.387Z,53.95
2023-05-19T16:31:35.111Z,53.66
2023-05-19T16:36:36.491Z,54.07
2023-05-19T16:41:38.535Z,53.65
2023-05-19T16:46:39.172Z,54.96
2023-05-19T16:51:39.824Z,55.11
2023-05-19T16:56:41.784Z,55.67
2023-05-19T17:01:42.455Z,55.46
2023-05-19T17:06:43.246Z,55.68
2023-05-19T17:11:45.202Z,56.04
2023-05-19T17:16:46.686Z,56.03
2023-05-19T17:21:47.382Z,56.76
2023-05-19T17:26:49.300Z,56.83
2023-05-19T17:31:49.965Z,56.40
2023-05-19T17:36:50.662Z,57.03
2023-05-19T17:41:52.688Z,56.85
2023-05-19T17:46:53.403Z,57.10
2023-05-19T17:51:54.697Z,57.60
2023-05-19T17:56:59.492Z,57.94
2023-05-19T18:02:00.686Z,58.62
2023-05-19T18:07:02.901Z,58.89
2023-05-19T18:12:05.599Z,59.08
2023-05-19T18:17:06.584Z,59.00
2023-05-19T18:22:07.318Z,59.99
2023-05-19T18:27:09.285Z,60.07
2023-05-19T18:32:10.017Z,60.55
2023-05-19T18:37:10.887Z,60.65
2023-05-19T18:42:12.955Z,60.80
2023-05-19T18:47:13.740Z,61.03
2023-05-19T18:52:14.503Z,61.32
2023-05-19T18:57:16.541Z,60.97
2023-05-19T19:02:17.193Z,62.04
2023-05-19T19:07:17.828Z,62.63
2023-05-19T19:12:20.507Z,62.32
2023-05-19T19:17:21.487Z,62.34
2023-05-19T19:22:22.303Z,63.28
2023-05-19T19:27:26.170Z,63.99
2023-05-19T19:32:26.945Z,63.77
2023-05-19T19:37:27.631Z,63.90
2023-05-19T19:42:31.755Z,64.28
2023-05-19T19:47:32.714Z,64.26
2023-05-19T19:52:33.398Z,64.25
2023-05-19T19:57:35.678Z,64.38
2023-05-19T20:02:45.587Z,64.62
2023-05-19T20:07:56.265Z,64.37
2023-05-19T20:12:59.300Z,64.30
2023-05-19T20:18:00.045Z,65.36
2023-05-19T20:23:00.736Z,65.09
2023-05-19T20:28:03.017Z,65.33
2023-05-19T20:33:03.788Z,65.63
2023-05-19T20:38:04.603Z,65.62
2023-05-19T20:43:06.615Z,65.89
2023-05-19T20:48:07.457Z,66.01
2023-05-19T20:53:08.273Z,66.21
2023-05-19T20:58:10.461Z,66.07
2023-05-19T21:03:11.574Z,66.41
2023-05-19T21:08:12.868Z,66.60
2023-05-19T21:13:15.163Z,66.45
2023-05-19T21:18:15.877Z,66.51
2023-05-19T21:23:16.493Z,66.21
2023-05-19T21:28:18.488Z,66.34
2023-05-19T21:33:19.207Z,67.16
2023-05-19T21:38:23.805Z,66.96
2023-05-19T21:43:26.278Z,67.56
2023-05-19T21:48:26.908Z,67.07
2023-05-19T21:53:27.647Z,67.48
2023-05-19T21:58:29.774Z,67.81
2023-05-19T22:03:30.479Z,67.68
2023-05-19T22:08:31.137Z,67.58
2023-05-19T22:13:34.006Z,67.51
2023-05-19T22:18:34.755Z,68.01
2023-05-19T22:23:35.448Z,68.34
2023-05-19T22:28:37.472Z,68.44
2023-05-19T22:33:38.076Z,68.61
2023-05-19T22:38:38.769Z,69.10
2023-05-19T22:43:40.776Z,68.60
2023-05-19T22:48:41.383Z,69.05
2023-05-19T22:53:42.637Z,69.15
2023-05-19T22:58:44.586Z,68.71
2023-05-19T23:03:45.459Z,68.56
2023-05-19T23:08:46.920Z,68.26
2023-05-19T23:13:48.910Z,68.57
2023-05-19T23:18:49.578Z,68.75
2023-05-19T23:23:50.624Z,69.56
2023-05-19T23:28:52.555Z,69.99
2023-05-19T23:33:53.138Z,70.13
2023-05-19T23:38:53.753Z,70.26
2023-05-19T23:43:55.767Z,70.48
2023-05-19T23:48:56.399Z,70.39
2023-05-19T23:53:57.020Z,70.26
2023-05-19T23:59:00.764Z,72.58
